Time;durP1;ratioP1;P1;durP2;ratioP2;P2;SDS_P1;SDS_P2;PMS_P1;PMS_P2;Temp;Humidity;BMP_temperature;BMP_pressure;BME280_temperature;BME280_humidity;BME280_pressure;Samples;Min_cycle;Max_cycle;Signal;HPM_P1;HPM_P2
2022/06/22 00:02:00;;;;;;;9.68;5.55;;;9.50;99.90;;;;;;4991241;28;20066;-76
2022/06/22 00:04:31;;;;;;;7.95;5.25;;;9.50;99.90;;;;;;4991038;28;20566;-76
2022/06/22 00:07:26;;;;;;;11.43;5.88;;;9.50;99.90;;;;;;4991577;28;20038;-76
2022/06/22 00:10:17;;;;;;;7.72;5.10;;;9.50;99.90;;;;;;4984068;28;20022;-76
2022/06/22 00:12:48;;;;;;;9.68;5.72;;;9.40;99.90;;;;;;4973963;28;20042;-76
2022/06/22 00:15:22;;;;;;;9.57;6.35;;;9.40;99.90;;;;;;4991390;28;20014;-77
2022/06/22 00:17:48;;;;;;;12.93;5.70;;;9.40;99.90;;;;;;4985113;28;20415;-76
2022/06/22 00:20:25;;;;;;;8.23;5.43;;;9.60;99.90;;;;;;4991699;28;20041;-76
2022/06/22 00:23:13;;;;;;;10.88;6.38;;;9.80;99.90;;;;;;4991020;28;20019;-76
2022/06/22 00:25:40;;;;;;;11.95;6.65;;;10.00;99.90;;;;;;4990968;28;20022;-76
2022/06/22 00:28:33;;;;;;;10.52;6.38;;;10.30;99.90;;;;;;4991090;28;20030;-77
2022/06/22 00:31:15;;;;;;;11.02;6.55;;;10.50;99.90;;;;;;4991169;28;20030;-76
2022/06/22 00:34:02;;;;;;;12.40;6.65;;;10.80;99.90;;;;;;4990943;28;20033;-77
2022/06/22 00:36:35;;;;;;;11.95;7.35;;;10.90;99.90;;;;;;4991032;28;20030;-76
2022/06/22 00:39:25;;;;;;;9.52;5.85;;;11.00;99.90;;;;;;4990842;28;20018;-76
2022/06/22 00:41:54;;;;;;;10.00;6.53;;;11.10;99.90;;;;;;4990488;28;20022;-76
2022/06/22 00:44:22;;;;;;;10.85;7.15;;;11.10;99.90;;;;;;4990826;28;20041;-76
2022/06/22 00:47:02;;;;;;;12.18;6.65;;;11.20;99.90;;;;;;4984277;28;20035;-77
2022/06/22 00:49:29;;;;;;;8.45;6.65;;;11.20;99.90;;;;;;4990987;28;20065;-76
2022/06/22 00:52:02;;;;;;;13.38;6.90;;;11.20;99.90;;;;;;4973858;28;20563;-77
2022/06/22 00:54:32;;;;;;;12.10;6.93;;;11.20;99.90;;;;;;4989921;28;20024;-77
2022/06/22 00:57:05;;;;;;;13.40;5.70;;;11.20;99.90;;;;;;4990820;28;20113;-77
2022/06/22 00:59:44;;;;;;;7.72;5.97;;;11.30;99.90;;;;;;4983910;28;20034;-77
2022/06/22 01:02:39;;;;;;;10.68;7.13;;;11.20;99.90;;;;;;4990077;28;20018;-77
2022/06/22 01:05:20;;;;;;;10.85;7.35;;;11.20;99.90;;;;;;4984852;28;20078;-77
2022/06/22 01:08:09;;;;;;;10.73;6.88;;;11.20;99.90;;;;;;4984403;28;20046;-77
2022/06/22 01:10:43;;;;;;;14.20;7.05;;;11.10;99.90;;;;;;4985445;28;20026;-76
2022/06/22 01:13:14;;;;;;;8.88;5.80;;;11.10;99.90;;;;;;4983998;28;20502;-77
2022/06/22 01:15:53;;;;;;;8.27;6.43;;;11.00;99.90;;;;;;4990282;28;20037;-77
2022/06/22 01:18:38;;;;;;;9.63;6.60;;;11.00;99.90;;;;;;4990346;28;20030;-77
2022/06/22 01:21:03;;;;;;;11.82;6.43;;;11.00;99.90;;;;;;4989976;28;20134;-77
2022/06/22 01:23:47;;;;;;;10.98;6.13;;;10.90;99.90;;;;;;4990204;28;20756;-77
2022/06/22 01:26:32;;;;;;;10.93;6.70;;;10.90;99.90;;;;;;4990227;28;20490;-77
2022/06/22 01:29:06;;;;;;;10.00;6.10;;;10.80;99.90;;;;;;4992575;28;20034;-77
2022/06/22 01:31:34;;;;;;;12.10;6.72;;;10.70;99.90;;;;;;4990277;28;20033;-77
2022/06/22 01:34:01;;;;;;;14.70;6.40;;;10.60;99.90;;;;;;4983247;28;20081;-77
2022/06/22 01:36:30;;;;;;;9.85;6.20;;;10.60;99.90;;;;;;4989678;28;20030;-77
2022/06/22 01:38:56;;;;;;;9.00;6.03;;;10.50;99.90;;;;;;4990126;28;20072;-77
2022/06/22 01:41:21;;;;;;;8.25;6.07;;;10.30;99.90;;;;;;4990440;28;20030;-77
2022/06/22 01:43:58;;;;;;;9.85;6.47;;;10.20;99.90;;;;;;4990122;28;20027;-77
2022/06/22 01:46:52;;;;;;;9.68;5.78;;;10.20;99.90;;;;;;4989544;28;20038;-76
2022/06/22 01:49:29;;;;;;;8.45;5.95;;;10.20;99.90;;;;;;5003504;23;20137;-77
2022/06/22 01:52:24;;;;;;;8.43;6.05;;;10.20;99.90;;;;;;4992042;28;20022;-77
2022/06/22 01:54:59;;;;;;;7.40;5.45;;;10.20;99.90;;;;;;4986969;28;20034;-77
2022/06/22 01:57:34;;;;;;;7.93;5.90;;;10.10;99.90;;;;;;4989321;28;20019;-77
2022/06/22 02:00:12;;;;;;;11.02;6.35;;;10.00;99.90;;;;;;4989472;28;20026;-76
2022/06/22 02:02:49;;;;;;;10.13;5.90;;;9.90;99.90;;;;;;4989644;28;20021;-76
2022/06/22 02:05:25;;;;;;;13.27;6.93;;;9.90;99.90;;;;;;4990918;28;20022;-76
2022/06/22 02:07:56;;;;;;;9.55;5.85;;;9.90;99.90;;;;;;4993596;28;20479;-76
2022/06/22 02:10:30;;;;;;;12.80;6.70;;;9.90;99.90;;;;;;4991742;28;20028;-76
2022/06/22 02:13:14;;;;;;;13.40;6.32;;;9.80;99.90;;;;;;4990397;28;20022;-76
2022/06/22 02:15:39;;;;;;;12.32;6.60;;;9.80;99.90;;;;;;4988606;28;20018;-76
2022/06/22 02:18:22;;;;;;;13.50;7.28;;;9.80;99.90;;;;;;4984968;28;20077;-76
2022/06/22 02:20:49;;;;;;;7.57;6.45;;;9.90;99.90;;;;;;4988698;28;20025;-76
2022/06/22 02:23:33;;;;;;;10.15;6.72;;;9.90;99.90;;;;;;4985570;28;20404;-76
2022/06/22 02:26:09;;;;;;;13.73;6.78;;;9.80;99.90;;;;;;4986743;28;20041;-76
2022/06/22 02:28:35;;;;;;;9.68;6.35;;;9.80;99.90;;;;;;4988277;28;20030;-77
2022/06/22 02:31:02;;;;;;;12.43;7.53;;;9.80;99.90;;;;;;4985499;28;20598;-76
2022/06/22 02:33:32;;;;;;;13.73;7.47;;;9.80;99.90;;;;;;4984756;28;20081;-76
2022/06/22 02:35:59;;;;;;;13.82;7.68;;;9.80;99.90;;;;;;4984364;28;20062;-76
2022/06/22 02:38:26;;;;;;;13.05;7.22;;;9.80;99.90;;;;;;4994691;28;20030;-77
2022/06/22 02:46:30;;;;;;;9.23;6.47;;;10.00;99.90;;;;;;4989747;28;20411;-76
2022/06/22 02:51:36;;;;;;;9.38;6.60;;;9.80;99.90;;;;;;5026761;28;20291;-78
2022/06/22 02:54:05;;;;;;;12.73;6.95;;;9.70;99.90;;;;;;5031419;28;20022;-78
2022/06/22 02:56:40;;;;;;;11.70;7.22;;;9.70;99.90;;;;;;5021110;28;20044;-78
2022/06/22 02:59:10;;;;;;;10.63;6.85;;;9.90;99.90;;;;;;5010832;28;20040;-78
2022/06/22 03:01:37;;;;;;;18.20;8.05;;;10.00;99.90;;;;;;5012180;28;20072;-78
2022/06/22 03:04:12;;;;;;;12.45;7.97;;;10.00;99.90;;;;;;5012304;28;20108;-78
2022/06/22 03:06:47;;;;;;;10.38;7.30;;;10.00;99.90;;;;;;5011730;28;20037;-78
2022/06/22 03:09:13;;;;;;;15.38;7.65;;;9.90;99.90;;;;;;5011903;28;20036;-78
2022/06/22 03:11:44;;;;;;;16.38;7.90;;;9.90;99.90;;;;;;5011616;28;20022;-78
2022/06/22 03:14:36;;;;;;;10.23;7.25;;;9.70;99.90;;;;;;5011890;28;20026;-78
2022/06/22 03:17:28;;;;;;;;;;;9.60;99.90;;;;;;5006998;28;20486;-78
2022/06/22 03:20:05;;;;;;;9.87;6.93;;;9.50;99.90;;;;;;5009168;28;19905;-78
2022/06/22 03:22:37;;;;;;;11.18;6.32;;;9.30;99.90;;;;;;5011551;28;20024;-78
2022/06/22 03:25:26;;;;;;;13.52;7.78;;;9.20;99.90;;;;;;5011669;28;20022;-77
2022/06/22 03:27:57;;;;;;;14.57;7.85;;;9.10;99.90;;;;;;5006405;28;20038;-79
2022/06/22 03:30:27;;;;;;;10.60;7.00;;;8.90;99.90;;;;;;5005218;28;20033;-79
2022/06/22 03:33:09;;;;;;;13.50;6.50;;;8.80;99.90;;;;;;5011325;28;20406;-79
2022/06/22 03:35:42;;;;;;;;;;;8.70;99.90;;;;;;5011667;28;20101;-79
2022/06/22 03:38:16;;;;;;;10.45;6.70;;;8.70;99.90;;;;;;5011695;28;20477;-79
2022/06/22 03:41:12;;;;;;;13.07;6.60;;;8.60;99.90;;;;;;5009996;28;20460;-79
2022/06/22 03:43:44;;;;;;;9.48;6.78;;;8.60;99.90;;;;;;5011495;28;20037;-79
2022/06/22 03:46:17;;;;;;;9.68;7.07;;;8.60;99.90;;;;;;5011050;28;20044;-79
2022/06/22 03:51:36;;;;;;;12.55;7.85;;;8.50;99.90;;;;;;5008407;28;20050;-75
2022/06/22 03:54:18;;;;;;;10.93;7.53;;;8.50;99.90;;;;;;5005383;28;20030;-76
2022/06/22 03:56:53;;;;;;;11.98;6.82;;;8.40;99.90;;;;;;5011370;28;20065;-75
2022/06/22 03:59:19;;;;;;;12.13;7.20;;;8.30;99.90;;;;;;5010963;28;20483;-75
2022/06/22 04:01:45;;;;;;;13.98;7.18;;;8.30;99.90;;;;;;5010545;28;20030;-75
2022/06/22 04:04:11;;;;;;;9.82;7.18;;;8.30;99.90;;;;;;5010744;28;20025;-76
2022/06/22 04:06:49;;;;;;;13.98;7.88;;;8.30;99.90;;;;;;5011150;28;20422;-75
2022/06/22 04:09:21;;;;;;;11.73;7.60;;;8.30;99.90;;;;;;5011147;28;20382;-77
2022/06/22 04:12:02;;;;;;;11.27;7.43;;;8.30;99.90;;;;;;5011033;28;20042;-76
2022/06/22 04:14:33;;;;;;;10.57;6.97;;;8.30;99.90;;;;;;5010848;28;20032;-77
2022/06/22 04:17:05;;;;;;;11.88;7.60;;;8.30;99.90;;;;;;5010534;28;20461;-77
2022/06/22 04:19:42;;;;;;;12.18;8.30;;;8.40;99.90;;;;;;5010870;28;20521;-76
2022/06/22 04:22:15;;;;;;;10.80;6.82;;;8.40;99.90;;;;;;5004181;28;20022;-77
2022/06/22 04:24:49;;;;;;;13.32;7.32;;;8.30;99.90;;;;;;5010308;28;20014;-77
2022/06/22 04:27:24;;;;;;;16.80;8.18;;;8.30;99.90;;;;;;5009639;28;20080;-76
2022/06/22 04:30:10;;;;;;;10.95;7.00;;;8.30;99.90;;;;;;5010509;28;20787;-77
2022/06/22 04:33:01;;;;;;;9.40;6.75;;;8.40;99.90;;;;;;5009629;28;20080;-77
2022/06/22 04:35:36;;;;;;;10.18;6.57;;;8.40;99.90;;;;;;5009928;28;20036;-77
2022/06/22 04:38:12;;;;;;;13.05;7.88;;;8.40;99.90;;;;;;5009423;28;20036;-76
2022/06/22 04:40:52;;;;;;;10.85;7.25;;;8.40;99.90;;;;;;5010307;28;20021;-77
2022/06/22 04:43:18;;;;;;;12.73;7.43;;;8.50;99.90;;;;;;5010038;28;20046;-75
2022/06/22 04:45:46;;;;;;;12.80;7.43;;;8.50;99.90;;;;;;5010538;28;20022;-77
2022/06/22 04:48:28;;;;;;;11.80;7.30;;;8.50;99.90;;;;;;5010288;28;20103;-77
2022/06/22 04:50:58;;;;;;;12.20;7.25;;;8.50;99.90;;;;;;5015459;23;20045;-78
2022/06/22 04:53:34;;;;;;;11.30;7.18;;;8.60;99.90;;;;;;4989976;28;20100;-78
2022/06/22 04:56:06;;;;;;;10.02;6.85;;;8.60;99.90;;;;;;4990474;28;20018;-78
2022/06/22 04:58:35;;;;;;;;;;;8.80;99.90;;;;;;4984211;28;20030;-78
2022/06/22 05:01:02;;;;;;;11.65;7.13;;;8.90;99.90;;;;;;4989885;28;19906;-79
2022/06/22 05:03:29;;;;;;;12.60;7.88;;;9.00;99.90;;;;;;4988101;28;20022;-78
2022/06/22 05:05:58;;;;;;;13.95;7.32;;;9.20;99.90;;;;;;4989945;28;20026;-79
2022/06/22 05:08:34;;;;;;;17.13;8.07;;;9.40;99.90;;;;;;4989805;28;20102;-78
2022/06/22 05:11:15;;;;;;;16.77;8.45;;;9.60;99.90;;;;;;4990663;28;20019;-79
2022/06/22 05:13:46;;;;;;;14.33;8.57;;;9.80;99.90;;;;;;4990950;28;20084;-79
2022/06/22 05:16:18;;;;;;;14.70;9.63;;;10.20;99.90;;;;;;4990245;28;20026;-79
2022/06/22 05:18:46;;;;;;;13.70;9.73;;;10.30;99.90;;;;;;4990376;28;20395;-79
2022/06/22 05:21:11;;;;;;;22.23;9.75;;;10.50;99.90;;;;;;4990984;28;20101;-79
2022/06/22 05:23:40;;;;;;;16.73;8.68;;;10.60;99.90;;;;;;4990673;28;20138;-79
2022/06/22 05:26:10;;;;;;;14.38;8.07;;;10.70;99.90;;;;;;4990849;28;20025;-79
2022/06/22 05:28:38;;;;;;;16.33;9.27;;;10.80;99.90;;;;;;4991038;28;20022;-79
2022/06/22 05:31:28;;;;;;;14.20;9.15;;;11.00;99.90;;;;;;4990553;28;20026;-80
2022/06/22 05:33:59;;;;;;;16.20;8.35;;;11.10;99.90;;;;;;4989846;28;20022;-79
2022/06/22 05:36:29;;;;;;;13.48;7.70;;;11.30;99.90;;;;;;4990057;28;20029;-80
2022/06/22 05:38:58;;;;;;;14.68;8.38;;;11.40;99.90;;;;;;4989941;28;20088;-79
2022/06/22 05:41:31;;;;;;;11.88;7.88;;;11.60;99.90;;;;;;4993489;28;20018;-79
2022/06/22 05:44:01;;;;;;;12.20;7.78;;;11.80;99.90;;;;;;4988214;28;20418;-79
2022/06/22 05:46:28;;;;;;;13.90;8.07;;;11.90;99.90;;;;;;4994623;28;20029;-80
2022/06/22 05:48:56;;;;;;;17.23;7.95;;;12.00;99.90;;;;;;4994212;28;20022;-80
2022/06/22 05:51:27;;;;;;;9.90;6.80;;;12.10;99.90;;;;;;5001785;28;20084;-79
2022/06/22 05:54:05;;;;;;;11.93;6.80;;;12.10;99.90;;;;;;4987589;28;20026;-80
2022/06/22 05:56:52;;;;;;;10.32;6.60;;;12.30;99.90;;;;;;4993786;28;20397;-80
2022/06/22 05:59:21;;;;;;;12.90;8.60;;;12.30;99.90;;;;;;4994211;28;20026;-79
2022/06/22 06:02:14;;;;;;;17.48;7.72;;;12.40;99.90;;;;;;4990303;28;20522;-80
2022/06/22 06:05:17;;;;;;;9.82;7.85;;;12.50;99.90;;;;;;4992537;28;20454;-80
2022/06/22 06:07:49;;;;;;;11.10;7.25;;;12.70;99.90;;;;;;4992277;28;20092;-79
2022/06/22 06:10:27;;;;;;;16.95;7.47;;;12.80;99.90;;;;;;4987048;28;20173;-80
2022/06/22 06:13:30;;;;;;;10.68;6.53;;;13.00;99.90;;;;;;4993799;28;20118;-80
2022/06/22 06:16:00;;;;;;;14.57;8.00;;;13.00;99.90;;;;;;4989111;28;20602;-80
2022/06/22 06:18:33;;;;;;;16.40;7.25;;;13.20;99.90;;;;;;4987152;28;20053;-80
2022/06/22 06:21:08;;;;;;;14.52;8.23;;;13.30;99.90;;;;;;4999960;28;20018;-79
2022/06/22 06:23:45;;;;;;;13.10;7.53;;;13.60;99.90;;;;;;4993189;28;20027;-80
2022/06/22 06:29:36;;;;;;;8.35;6.35;;;14.50;99.90;;;;;;4988253;28;20391;-80
2022/06/22 06:32:09;;;;;;;7.47;5.18;;;15.10;99.90;;;;;;4993652;28;20023;-79
2022/06/22 06:34:58;;;;;;;10.05;5.57;;;15.70;99.90;;;;;;4991741;28;20524;-79
2022/06/22 06:37:42;;;;;;;14.30;6.05;;;16.30;99.90;;;;;;4982450;28;20369;-80
2022/06/22 06:40:17;;;;;;;10.98;5.35;;;16.60;99.90;;;;;;4991828;28;20022;-79
2022/06/22 06:43:18;;;;;;;6.95;4.53;;;16.80;99.90;;;;;;4993048;28;20019;-80
2022/06/22 06:45:44;;;;;;;7.60;4.30;;;17.00;99.90;;;;;;4983051;28;20379;-80
2022/06/22 06:48:18;;;;;;;8.13;5.30;;;16.90;99.90;;;;;;4991769;28;20030;-79
2022/06/22 06:50:49;;;;;;;6.32;4.50;;;17.00;99.90;;;;;;4990817;28;20506;-79
2022/06/22 06:53:36;;;;;;;6.53;4.22;;;16.90;99.90;;;;;;4989526;28;20121;-80
2022/06/22 06:56:12;;;;;;;5.28;4.45;;;16.80;99.90;;;;;;4986812;28;20061;-80
2022/06/22 06:58:41;;;;;;;10.80;4.30;;;16.90;99.90;;;;;;4990250;28;20469;-80
2022/06/22 07:01:15;;;;;;;6.45;4.57;;;16.90;99.90;;;;;;4985271;28;20029;-80
2022/06/22 07:03:41;;;;;;;7.72;4.47;;;16.90;99.90;;;;;;4991889;28;20157;-80
2022/06/22 07:06:08;;;;;;;6.90;4.32;;;16.80;99.90;;;;;;4992297;28;20026;-79
2022/06/22 07:08:46;;;;;;;8.57;4.53;;;16.70;99.90;;;;;;4993022;28;20011;-80
2022/06/22 07:11:31;;;;;;;6.18;4.18;;;16.70;99.90;;;;;;4986550;28;20054;-80
2022/06/22 07:14:06;;;;;;;5.50;3.90;;;16.70;99.90;;;;;;4988318;28;20033;-80
2022/06/22 07:16:32;;;;;;;6.43;4.10;;;16.70;99.90;;;;;;4992538;28;20483;-79
2022/06/22 07:19:17;;;;;;;7.65;4.47;;;16.70;99.90;;;;;;4992188;28;20040;-79
2022/06/22 07:22:18;;;;;;;6.30;4.45;;;16.70;99.90;;;;;;4990170;28;20116;-80
2022/06/22 07:24:58;;;;;;;6.65;4.20;;;16.80;99.90;;;;;;4992617;28;20033;-80
2022/06/22 07:27:36;;;;;;;6.80;5.05;;;16.70;99.90;;;;;;4992563;28;20023;-77
2022/06/22 07:30:16;;;;;;;7.50;4.38;;;16.80;99.90;;;;;;4992284;28;20508;-77
2022/06/22 07:33:01;;;;;;;7.50;4.75;;;16.90;99.90;;;;;;4992078;28;20049;-77
2022/06/22 07:35:38;;;;;;;5.72;3.92;;;16.90;99.90;;;;;;4992228;28;20057;-78
2022/06/22 07:38:29;;;;;;;7.72;3.80;;;17.10;99.90;;;;;;4991554;28;20404;-77
2022/06/22 07:43:43;;;;;;;5.47;3.38;;;17.40;99.90;;;;;;4987638;28;20042;-77
2022/06/22 07:46:16;;;;;;;4.10;3.00;;;17.50;99.90;;;;;;4988373;28;20398;-76
2022/06/22 07:48:45;;;;;;;3.42;2.80;;;17.60;99.90;;;;;;4985411;28;20475;-75
2022/06/22 07:51:18;;;;;;;6.50;2.70;;;17.70;99.90;;;;;;5004362;23;20042;-83
2022/06/22 07:53:56;;;;;;;7.22;2.75;;;17.70;99.90;;;;;;4992175;28;20022;-82
2022/06/22 07:56:28;;;;;;;4.03;2.42;;;17.80;99.90;;;;;;4989788;28;20022;-76
2022/06/22 07:59:18;;;;;;;5.40;2.90;;;17.90;99.90;;;;;;4989832;28;20125;-77
2022/06/22 08:01:46;;;;;;;3.45;2.70;;;18.10;99.90;;;;;;4989573;28;20026;-78
2022/06/22 08:04:24;;;;;;;3.35;2.45;;;18.30;99.90;;;;;;4990928;28;20105;-76
2022/06/22 08:06:56;;;;;;;3.38;2.40;;;18.30;99.90;;;;;;4991133;28;20104;-76
2022/06/22 08:09:34;;;;;;;;;;;18.40;99.90;;;;;;4985558;28;20578;-73
2022/06/22 08:12:23;;;;;;;3.65;2.10;;;18.50;99.90;;;;;;4991061;28;20335;-74
2022/06/22 08:14:54;;;;;;;4.18;2.47;;;18.60;99.90;;;;;;4984405;28;20073;-75
2022/06/22 08:17:44;;;;;;;4.10;2.08;;;18.90;99.90;;;;;;4991370;28;20117;-73
2022/06/22 08:20:24;;;;;;;4.32;2.05;;;19.00;99.90;;;;;;4981239;28;20026;-75
2022/06/22 08:22:51;;;;;;;6.07;2.03;;;19.10;99.90;;;;;;4991508;28;20030;-74
2022/06/22 08:25:20;;;;;;;1.50;1.40;;;19.30;99.90;;;;;;4991612;28;20053;-73
2022/06/22 08:27:46;;;;;;;4.88;2.00;;;19.40;99.90;;;;;;4992166;28;20069;-74
2022/06/22 08:30:14;;;;;;;3.97;1.60;;;19.60;99.90;;;;;;4991553;28;20046;-74
2022/06/22 08:32:50;;;;;;;2.92;1.20;;;19.70;98.00;;;;;;4991180;28;20076;-74
2022/06/22 08:35:45;;;;;;;3.08;1.20;;;20.00;84.90;;;;;;4991052;28;20018;-74
2022/06/22 08:38:30;;;;;;;1.77;1.08;;;20.30;74.30;;;;;;4985586;28;20057;-74
2022/06/22 08:40:58;;;;;;;2.83;1.50;;;20.70;74.70;;;;;;4996918;28;20018;-74
2022/06/22 08:43:44;;;;;;;3.35;1.20;;;21.50;70.20;;;;;;4990657;28;20482;-74
2022/06/22 08:46:29;;;;;;;1.48;0.90;;;22.50;65.30;;;;;;4990740;28;20037;-76
2022/06/22 08:49:32;;;;;;;4.07;1.08;;;23.50;61.40;;;;;;4991107;28;20044;-82
2022/06/22 08:52:17;;;;;;;2.90;0.88;;;25.00;58.10;;;;;;4982923;28;20092;-79
2022/06/22 08:55:21;;;;;;;1.58;0.90;;;25.90;50.00;;;;;;4990999;28;20029;-78
2022/06/22 08:57:58;;;;;;;3.22;0.90;;;26.60;47.60;;;;;;4985644;28;20588;-80
2022/06/22 09:00:35;;;;;;;1.63;0.93;;;27.70;46.30;;;;;;4990934;28;20033;-79
2022/06/22 09:03:15;;;;;;;3.45;1.13;;;28.20;44.80;;;;;;4993114;28;20027;-81
2022/06/22 09:06:08;;;;;;;1.85;0.93;;;28.70;44.20;;;;;;4989457;28;20034;-78
2022/06/22 09:08:49;;;;;;;2.65;0.90;;;29.20;42.20;;;;;;4985526;28;20584;-79
2022/06/22 09:11:21;;;;;;;2.28;0.95;;;29.40;42.40;;;;;;4985072;28;20494;-78
2022/06/22 09:14:14;;;;;;;2.72;0.70;;;29.90;41.40;;;;;;4990539;28;20554;-78
2022/06/22 09:16:47;;;;;;;2.22;1.00;;;30.30;38.80;;;;;;4990910;28;20028;-79
2022/06/22 09:22:01;;;;;;;0.47;0.43;;;30.70;36.40;;;;;;5026744;28;20053;-75
2022/06/22 09:24:39;;;;;;;3.78;0.73;;;31.10;36.40;;;;;;5029813;28;20094;-74
2022/06/22 09:27:20;;;;;;;2.45;0.60;;;31.50;34.90;;;;;;5015195;28;20026;-75
2022/06/22 09:29:55;;;;;;;1.15;0.70;;;31.00;35.20;;;;;;5009676;28;20100;-75
2022/06/22 09:32:30;;;;;;;5.15;0.77;;;30.90;35.60;;;;;;5009821;28;20014;-74
2022/06/22 09:35:33;;;;;;;2.35;0.80;;;30.50;37.10;;;;;;4987410;28;20030;-75
2022/06/22 09:38:27;;;;;;;1.20;0.70;;;31.60;36.50;;;;;;5007224;28;20084;-75
2022/06/22 09:41:34;;;;;;;2.25;0.73;;;30.80;37.00;;;;;;5010321;28;20018;-74
2022/06/22 09:44:17;;;;;;;0.90;0.57;;;30.70;37.60;;;;;;4988548;28;20033;-74
2022/06/22 09:47:11;;;;;;;1.98;0.55;;;31.00;38.00;;;;;;5004318;28;20033;-75
2022/06/22 09:49:55;;;;;;;0.80;0.60;;;31.20;36.50;;;;;;5005015;28;20058;-75
2022/06/22 09:52:35;;;;;;;1.00;0.60;;;32.10;36.70;;;;;;5005335;28;20024;-75
2022/06/22 09:58:10;;;;;;;0.95;0.55;;;33.00;35.50;;;;;;5000742;28;20518;-75
2022/06/22 10:00:42;;;;;;;1.00;0.50;;;32.90;34.60;;;;;;5009786;28;20022;-75
2022/06/22 10:03:39;;;;;;;1.90;0.88;;;32.70;33.70;;;;;;5009940;28;20050;-75
2022/06/22 10:06:40;;;;;;;0.70;0.50;;;33.10;34.40;;;;;;5005874;28;20371;-75
2022/06/22 10:09:05;;;;;;;2.20;0.60;;;34.00;32.90;;;;;;5010022;28;20386;-75
2022/06/22 10:12:03;;;;;;;1.50;0.60;;;34.40;32.00;;;;;;5009996;28;20022;-75
2022/06/22 10:15:02;;;;;;;1.63;0.60;;;34.50;33.90;;;;;;4959857;28;20045;-75
2022/06/22 10:17:33;;;;;;;1.67;0.60;;;34.90;32.20;;;;;;5009512;28;20022;-75
2022/06/22 10:20:08;;;;;;;0.47;0.43;;;35.00;30.40;;;;;;5018175;23;20031;-79
2022/06/22 10:23:16;;;;;;;1.80;0.50;;;35.00;30.50;;;;;;4972645;28;20188;-79
2022/06/22 10:25:50;;;;;;;1.33;0.35;;;34.40;29.90;;;;;;4965085;28;20023;-88
2022/06/22 10:28:25;;;;;;;1.00;0.50;;;34.70;29.90;;;;;;4962031;28;20027;-77
2022/06/22 10:31:06;;;;;;;2.83;0.70;;;35.30;29.70;;;;;;4960214;28;20535;-86
2022/06/22 10:33:42;;;;;;;2.53;0.70;;;35.90;32.30;;;;;;4956798;28;20038;-77
2022/06/22 10:36:34;;;;;;;0.50;0.30;;;36.30;29.90;;;;;;4955193;28;20535;-81
2022/06/22 10:39:25;;;;;;;2.15;0.68;;;35.90;28.90;;;;;;4955947;28;20031;-77
2022/06/22 10:45:28;;;;;;;2.03;0.55;;;34.00;31.80;;;;;;4951068;28;20038;-76
2022/06/22 10:48:15;;;;;;;0.55;0.40;;;35.00;31.30;;;;;;4955464;28;20078;-76
2022/06/22 10:51:00;;;;;;;0.40;0.30;;;34.60;29.90;;;;;;4938209;28;20031;-75
2022/06/22 10:54:05;;;;;;;2.55;0.55;;;35.10;30.60;;;;;;4956365;28;20023;-74
2022/06/22 10:56:55;;;;;;;2.22;0.40;;;34.60;32.50;;;;;;4958057;28;20070;-77
2022/06/22 10:59:21;;;;;;;2.92;0.40;;;34.70;30.70;;;;;;4952832;28;20030;-77
2022/06/22 11:02:06;;;;;;;0.93;0.50;;;35.70;29.90;;;;;;4957874;28;20106;-77
2022/06/22 11:04:56;;;;;;;1.15;0.63;;;35.90;28.00;;;;;;4959021;28;20357;-79
2022/06/22 11:07:40;;;;;;;0.60;0.40;;;36.50;27.10;;;;;;4961205;28;20038;-78
2022/06/22 11:10:40;;;;;;;1.10;0.63;;;36.80;28.20;;;;;;4959177;28;20023;-75
2022/06/22 11:13:22;;;;;;;1.05;0.40;;;35.40;27.80;;;;;;4949029;28;20483;-75
2022/06/22 11:16:07;;;;;;;0.63;0.47;;;36.00;28.30;;;;;;4956098;28;20030;-76
2022/06/22 11:18:50;;;;;;;1.85;0.45;;;35.50;29.80;;;;;;4963506;28;20019;-77
2022/06/22 11:21:33;;;;;;;1.20;0.50;;;36.30;28.50;;;;;;4991283;23;20046;-75
2022/06/22 11:24:08;;;;;;;1.27;0.50;;;35.00;27.50;;;;;;4992156;28;20026;-75
2022/06/22 11:32:48;;;;;;;1.38;0.43;;;36.80;28.90;;;;;;4991379;28;20541;-75
2022/06/22 11:35:38;;;;;;;0.70;0.40;;;38.10;27.10;;;;;;4992374;28;20435;-75
2022/06/22 11:38:23;;;;;;;2.60;0.55;;;37.40;27.30;;;;;;4991923;28;20034;-75
2022/06/22 11:41:10;;;;;;;0.50;0.38;;;36.30;27.60;;;;;;4990703;28;20503;-75
2022/06/22 11:44:13;;;;;;;0.75;0.28;;;37.60;27.80;;;;;;4991737;28;20026;-75
2022/06/22 11:46:55;;;;;;;1.25;0.60;;;37.80;26.30;;;;;;4992263;28;20162;-75
2022/06/22 11:49:23;;;;;;;0.60;0.32;;;38.30;26.00;;;;;;4970314;28;20058;-77
2022/06/22 11:51:55;;;;;;;1.67;0.45;;;36.90;26.20;;;;;;4991561;28;20058;-76
2022/06/22 11:54:54;;;;;;;0.80;0.47;;;36.50;27.40;;;;;;4991472;28;20126;-76
2022/06/22 11:57:32;;;;;;;1.15;0.30;;;37.30;28.30;;;;;;4949185;28;20121;-77
2022/06/22 12:00:19;;;;;;;0.22;0.20;;;37.20;29.80;;;;;;4993371;28;20084;-76
2022/06/22 12:03:12;;;;;;;0.50;0.35;;;38.60;25.10;;;;;;4991258;28;20026;-77
2022/06/22 12:05:44;;;;;;;0.70;0.20;;;39.60;25.50;;;;;;4984055;28;20034;-78
2022/06/22 12:08:26;;;;;;;1.33;0.30;;;40.10;24.90;;;;;;4991871;28;20035;-78
2022/06/22 12:11:06;;;;;;;0.65;0.40;;;40.00;23.90;;;;;;4991707;28;20049;-78
2022/06/22 12:16:56;;;;;;;1.08;0.40;;;38.70;24.50;;;;;;4992116;28;20033;-77
2022/06/22 12:19:41;;;;;;;0.95;0.30;;;39.70;26.00;;;;;;4987081;28;20606;-78
2022/06/22 12:22:29;;;;;;;1.75;0.47;;;38.80;24.30;;;;;;4985427;28;20022;-77
2022/06/22 12:25:20;;;;;;;0.47;0.25;;;37.70;24.90;;;;;;4985849;28;20030;-78
2022/06/22 12:28:11;;;;;;;1.38;0.38;;;38.40;25.60;;;;;;4991512;28;20026;-77
2022/06/22 12:30:53;;;;;;;0.63;0.30;;;39.10;26.50;;;;;;4989056;28;20438;-77
2022/06/22 12:33:31;;;;;;;1.58;0.35;;;39.70;24.30;;;;;;4991645;28;20410;-77
2022/06/22 12:35:59;;;;;;;3.30;0.40;;;40.30;26.80;;;;;;4991520;28;20050;-77
2022/06/22 12:38:34;;;;;;;0.73;0.30;;;39.70;24.30;;;;;;4991932;28;20018;-77
2022/06/22 12:41:30;;;;;;;1.63;0.47;;;39.50;25.30;;;;;;4991451;28;20077;-79
2022/06/22 12:44:17;;;;;;;1.42;0.50;;;39.10;27.40;;;;;;4984542;28;20022;-76
2022/06/22 12:46:54;;;;;;;2.95;0.60;;;39.80;25.20;;;;;;4991175;28;20054;-76
2022/06/22 12:49:57;;;;;;;0.60;0.40;;;39.20;25.40;;;;;;4984284;28;20034;-75
2022/06/22 12:52:38;;;;;;;2.55;0.47;;;39.60;24.80;;;;;;4987484;28;20018;-75
2022/06/22 12:55:13;;;;;;;2.38;0.55;;;39.40;25.30;;;;;;4990289;28;20027;-76
2022/06/22 12:57:45;;;;;;;0.60;0.40;;;40.40;26.90;;;;;;4990510;28;20040;-75
2022/06/22 13:00:18;;;;;;;2.70;0.50;;;40.70;26.10;;;;;;4984300;28;20365;-76
2022/06/22 13:02:45;;;;;;;2.60;0.50;;;41.20;25.00;;;;;;4990987;28;20057;-76
2022/06/22 13:05:32;;;;;;;0.40;0.30;;;40.80;25.00;;;;;;4990385;28;20026;-75
2022/06/22 13:08:05;;;;;;;1.00;0.43;;;41.10;27.00;;;;;;4990846;28;20121;-75
2022/06/22 13:10:40;;;;;;;1.67;0.40;;;38.90;27.80;;;;;;4971214;28;20030;-77
2022/06/22 13:13:21;;;;;;;1.38;0.50;;;40.10;25.90;;;;;;4990403;28;20633;-76
2022/06/22 13:15:52;;;;;;;;;;;39.70;24.60;;;;;;4991297;28;20018;-76
2022/06/22 13:18:34;;;;;;;0.30;0.30;;;40.80;25.80;;;;;;4984179;28;20337;-77
2022/06/22 13:21:17;;;;;;;1.35;0.32;;;41.10;24.50;;;;;;4990865;28;20029;-80
2022/06/22 13:23:58;;;;;;;1.95;0.52;;;40.80;25.90;;;;;;4990751;28;20033;-78
2022/06/22 13:26:55;;;;;;;1.50;0.57;;;38.10;25.60;;;;;;4990500;28;20550;-76
2022/06/22 13:29:26;;;;;;;1.85;0.57;;;37.70;25.60;;;;;;4945794;28;20069;-76
2022/06/22 13:31:57;;;;;;;2.45;0.32;;;38.80;26.10;;;;;;4990920;28;20022;-76
2022/06/22 13:34:50;;;;;;;;;;;40.30;27.10;;;;;;4990994;28;20126;-78
2022/06/22 13:37:27;;;;;;;1.05;0.38;;;40.30;25.80;;;;;;4967745;28;19953;-76
2022/06/22 13:40:13;;;;;;;0.75;0.50;;;39.20;26.80;;;;;;4990273;28;20018;-77
2022/06/22 13:42:55;;;;;;;0.43;0.30;;;39.20;26.40;;;;;;4991297;28;20057;-77
2022/06/22 13:45:41;;;;;;;1.02;0.30;;;40.80;25.90;;;;;;4990344;28;20022;-77
2022/06/22 13:48:09;;;;;;;2.67;0.70;;;41.80;24.70;;;;;;4991431;28;20046;-76
2022/06/22 13:53:37;;;;;;;1.30;0.30;;;40.90;25.00;;;;;;4997472;28;20045;-76
2022/06/22 13:56:26;;;;;;;3.97;0.60;;;41.60;26.30;;;;;;4993054;28;20029;-76
2022/06/22 13:58:57;;;;;;;1.23;0.50;;;40.90;25.50;;;;;;4989465;28;20095;-79
2022/06/22 14:02:01;;;;;;;0.70;0.40;;;42.40;27.10;;;;;;4991989;28;20022;-77
2022/06/22 14:04:32;;;;;;;0.43;0.43;;;42.70;24.90;;;;;;4982938;28;20026;-75
2022/06/22 14:07:04;;;;;;;0.82;0.35;;;42.40;24.20;;;;;;4976319;28;20101;-75
2022/06/22 14:09:36;;;;;;;0.45;0.20;;;41.80;24.20;;;;;;4993089;28;20088;-75
2022/06/22 14:12:15;;;;;;;1.35;0.28;;;41.90;24.80;;;;;;4994101;28;20027;-75
2022/06/22 14:15:07;;;;;;;0.55;0.30;;;40.00;26.50;;;;;;4990007;28;20038;-75
2022/06/22 14:17:43;;;;;;;1.85;0.50;;;39.30;25.80;;;;;;4988895;28;20050;-75
2022/06/22 14:20:20;;;;;;;1.00;0.47;;;39.90;28.00;;;;;;4935144;28;1527268;-75
2022/06/22 14:23:01;;;;;;;1.60;0.30;;;39.10;26.40;;;;;;4992577;28;20046;-80
2022/06/22 14:25:54;;;;;;;1.58;0.40;;;39.50;26.30;;;;;;4993211;28;20033;-77